TimeCEST,TemperatureF,Dew PointF,Humidity,Sea Level PressureIn,VisibilityMPH,Wind Direction,Wind SpeedMPH,Gust SpeedMPH,PrecipitationIn,Events,Conditions,WindDirDegrees,DateUTC
1:55 AM,44.6,37.4,76,30.27,-9999.0,North,5.8,-,N/A,,Clear,350,2013-07-01 23:55:00
2:00 AM,44,38,73,,7,North,5.8,,,,Partly Cloudy,350,2013-07-02 00:00:00
4:55 AM,44.6,39.2,81,30.27,2.5,North,5.8,-,N/A,,Partly Cloudy,10,2013-07-02 02:55:00
5:00 AM,44,40,79,,2,North,5.8,,,,Mist,10,2013-07-02 03:00:00
5:55 AM,44.6,41.0,87,30.27,2.5,NNW,5.8,-,N/A,,Scattered Clouds,340,2013-07-02 03:55:00
6:55 AM,44.6,41.0,87,30.27,2.5,WNW,4.6,-,N/A,,Partly Cloudy,300,2013-07-02 04:55:00
7:55 AM,46.4,42.8,87,30.27,3.1,NW,3.5,-,N/A,,Partly Cloudy,320,2013-07-02 05:55:00
8:00 AM,46,43,84,,3,NW,3.5,,,,Mist,320,2013-07-02 06:00:00
8:55 AM,44.6,41.0,87,30.27,5.0,NNW,4.6,-,N/A,,Partly Cloudy,340,2013-07-02 06:55:00
9:55 AM,50.0,41.0,71,30.27,6.2,WSW,3.5,-,N/A,,Partly Cloudy,240,2013-07-02 07:55:00
10:55 AM,51.8,39.2,62,30.27,6.2,SW,4.6,-,N/A,,Scattered Clouds,230,2013-07-02 08:55:00
11:00 AM,53,39,48,,9,SW,4.6,,,,Partly Cloudy,230,2013-07-02 09:00:00
11:55 AM,57.2,42.8,59,30.27,6.2,SE,8.1,-,N/A,,Scattered Clouds,130,2013-07-02 09:55:00
12:55 PM,57.2,39.2,51,30.27,6.2,SE,12.7,-,N/A,,Scattered Clouds,130,2013-07-02 10:55:00
1:55 PM,57.2,39.2,51,30.27,6.2,SSE,15.0,26.5,N/A,,Scattered Clouds,150,2013-07-02 11:55:00
2:00 PM,58,39,38,,9,SSE,15.0,,,,Mostly Cloudy,150,2013-07-02 12:00:00
2:55 PM,57.2,37.4,48,30.27,6.2,SE,11.5,-,N/A,,Scattered Clouds,140,2013-07-02 12:55:00
3:55 PM,55.4,37.4,51,30.27,6.2,SSE,9.2,-,N/A,,Scattered Clouds,160,2013-07-02 13:55:00
4:55 PM,55.4,39.2,54,30.27,6.2,SSE,6.9,-,N/A,,Scattered Clouds,150,2013-07-02 14:55:00
5:00 PM,55,39,44,,12,SSE,6.9,,,,Mostly Cloudy,150,2013-07-02 15:00:00
5:55 PM,51.8,35.6,54,30.27,6.2,NE,5.8,-,N/A,Rain,Light Rain,50,2013-07-02 15:55:00
6:55 PM,53.6,41.0,62,30.27,6.2,SE,8.1,-,N/A,,Scattered Clouds,140,2013-07-02 16:55:00
7:55 PM,57.2,42.8,59,30.27,-9999.0,SE,8.1,-,N/A,,Clear,130,2013-07-02 17:55:00
8:00 PM,57,43,49,,19,SE,8.1,,,,Partly Cloudy,130,2013-07-02 18:00:00
10:55 PM,48.2,46.4,93,30.27,-9999.0,SE,11.5,-,N/A,,Clear,130,2013-07-02 20:55:00
11:00 PM,48,46,91,,9,SE,11.5,,,,Scattered Clouds,130,2013-07-02 21:00:00